Time;durP1;ratioP1;P1;durP2;ratioP2;P2;SDS_P1;SDS_P2;PMS_P1;PMS_P2;Temp;Humidity;BMP_temperature;BMP_pressure;BME280_temperature;BME280_humidity;BME280_pressure;Samples;Min_cycle;Max_cycle;Signal;HPM_P1;HPM_P2
2021/09/25 00:01:30;;;;;;;;;;;12.50;1.00;;;;;;5020161;28;19917;-68
2021/09/25 00:03:58;;;;;;;;;;;12.50;1.00;;;;;;5020656;28;19984;-67
2021/09/25 00:06:23;;;;;;;;;;;12.50;1.00;;;;;;5022120;28;19913;-67
2021/09/25 00:08:49;;;;;;;;;;;12.40;1.00;;;;;;5022866;28;19928;-65
2021/09/25 00:11:14;;;;;;;;;;;12.40;1.00;;;;;;5011992;28;20008;-66
2021/09/25 00:13:40;;;;;;;;;;;12.40;1.00;;;;;;5023443;28;20027;-66
2021/09/25 00:16:07;;;;;;;;;;;12.40;1.00;;;;;;5022328;28;19957;-65
2021/09/25 00:18:35;;;;;;;;;;;12.30;1.00;;;;;;5015303;28;20001;-67
2021/09/25 00:21:01;;;;;;;;;;;12.30;1.00;;;;;;5018317;28;19948;-66
2021/09/25 00:23:26;;;;;;;;;;;12.30;1.00;;;;;;5009205;28;20001;-67
2021/09/25 00:25:53;;;;;;;;;;;12.30;1.00;;;;;;5016557;28;19976;-67
2021/09/25 00:28:18;;;;;;;;;;;12.30;1.00;;;;;;5022654;28;19921;-64
2021/09/25 00:30:44;;;;;;;;;;;12.20;1.00;;;;;;5008816;28;20374;-65
2021/09/25 00:33:09;;;;;;;;;;;12.20;1.00;;;;;;5017073;28;19914;-66
2021/09/25 00:35:35;;;;;;;;;;;12.10;1.00;;;;;;5015600;28;20659;-65
2021/09/25 00:38:00;;;;;;;;;;;12.10;1.00;;;;;;5019234;28;19917;-66
2021/09/25 00:40:26;;;;;;;;;;;12.10;1.00;;;;;;5020239;28;19914;-66
2021/09/25 00:42:51;;;;;;;;;;;12.10;1.00;;;;;;5016362;28;19961;-66
2021/09/25 00:45:19;;;;;;;;;;;12.10;1.00;;;;;;5012560;28;19924;-66
2021/09/25 00:47:45;;;;;;;;;;;12.10;1.00;;;;;;5013468;28;19914;-67
2021/09/25 00:50:10;;;;;;;;;;;12.10;1.00;;;;;;5012245;28;20381;-66
2021/09/25 00:52:36;;;;;;;;;;;12.00;1.00;;;;;;5029683;28;19959;-66
2021/09/25 00:55:02;;;;;;;;;;;12.00;1.00;;;;;;5023295;28;19917;-65
2021/09/25 00:57:28;;;;;;;;;;;11.90;1.00;;;;;;5031900;28;19913;-66
2021/09/25 00:59:54;;;;;;;;;;;11.80;1.00;;;;;;5015683;28;19921;-70
2021/09/25 01:02:20;;;;;;;;;;;11.80;1.00;;;;;;5021237;28;19918;-67
2021/09/25 01:04:46;;;;;;;;;;;11.70;1.00;;;;;;5022425;28;19917;-67
2021/09/25 01:07:11;;;;;;;;;;;11.70;1.00;;;;;;5023025;28;20682;-66
2021/09/25 01:09:37;;;;;;;;;;;11.70;1.00;;;;;;5024281;28;19917;-66
2021/09/25 01:12:03;;;;;;;;;;;11.80;1.00;;;;;;5021262;28;19913;-62
2021/09/25 01:14:31;;;;;;;;;;;11.80;1.00;;;;;;5022902;28;20024;-67
2021/09/25 01:17:09;;;;;;;;;;;11.80;1.00;;;;;;5020290;28;20266;-66
2021/09/25 01:19:35;;;;;;;;;;;11.70;1.00;;;;;;5025424;28;19997;-65
2021/09/25 01:22:01;;;;;;;;;;;11.60;1.00;;;;;;5022183;28;19969;-65
2021/09/25 01:24:27;;;;;;;;;;;11.60;1.00;;;;;;5018840;28;19914;-65
2021/09/25 01:26:53;;;;;;;;;;;11.50;1.00;;;;;;5025148;28;20056;-66
2021/09/25 01:29:18;;;;;;;;;;;11.50;1.00;;;;;;5027140;28;20392;-65
2021/09/25 01:31:44;;;;;;;;;;;11.50;1.00;;;;;;5021490;28;19913;-65
2021/09/25 01:34:09;;;;;;;;;;;11.50;1.00;;;;;;5019169;28;19993;-67
2021/09/25 01:36:35;;;;;;;;;;;11.50;1.00;;;;;;5027393;28;19925;-67
2021/09/25 01:39:00;;;;;;;;;;;11.50;1.00;;;;;;5012796;28;19933;-67
2021/09/25 01:41:26;;;;;;;;;;;11.50;1.00;;;;;;5013133;28;19925;-66
2021/09/25 01:43:52;;;;;;;;;;;11.50;1.00;;;;;;5029260;28;19917;-66
2021/09/25 01:46:18;;;;;;;;;;;11.50;1.00;;;;;;5015736;28;20273;-67
2021/09/25 01:48:44;;;;;;;;;;;11.40;1.00;;;;;;5022611;28;19914;-66
2021/09/25 01:51:10;;;;;;;;;;;11.40;1.00;;;;;;5011212;28;19913;-67
2021/09/25 01:53:36;;;;;;;;;;;11.40;1.00;;;;;;5018487;28;19921;-67
2021/09/25 01:56:08;;;;;;;;;;;11.40;1.00;;;;;;5011851;28;19914;-67
2021/09/25 01:58:34;;;;;;;;;;;11.40;1.00;;;;;;5022885;28;19921;-67
2021/09/25 02:00:59;;;;;;;;;;;11.30;1.00;;;;;;5010189;28;20409;-68
2021/09/25 02:03:25;;;;;;;;;;;11.20;1.00;;;;;;5012771;28;19922;-66
2021/09/25 02:05:50;;;;;;;;;;;11.20;1.00;;;;;;5023850;28;20535;-67
2021/09/25 02:08:16;;;;;;;;;;;11.20;1.00;;;;;;5019366;28;19991;-66
2021/09/25 02:10:42;;;;;;;;;;;11.20;1.00;;;;;;5019343;28;20302;-67
2021/09/25 02:13:07;;;;;;;;;;;11.10;1.00;;;;;;5017222;28;19913;-67
2021/09/25 02:15:34;;;;;;;;;;;11.10;1.00;;;;;;5021591;28;19929;-68
2021/09/25 02:18:00;;;;;;;;;;;11.10;1.00;;;;;;5025221;28;20263;-66
2021/09/25 02:20:26;;;;;;;;;;;11.10;1.00;;;;;;5023839;28;20324;-67
2021/09/25 02:22:51;;;;;;;;;;;11.00;1.00;;;;;;5020383;28;19943;-67
2021/09/25 02:25:17;;;;;;;;;;;10.90;1.00;;;;;;5023991;28;20413;-66
2021/09/25 02:27:42;;;;;;;;;;;10.90;1.00;;;;;;5019982;28;19920;-67
2021/09/25 02:30:13;;;;;;;;;;;10.90;1.00;;;;;;5010860;28;20097;-67
2021/09/25 02:32:38;;;;;;;;;;;10.80;1.00;;;;;;5017348;28;20013;-67
2021/09/25 02:35:05;;;;;;;;;;;10.80;1.00;;;;;;5016150;28;20491;-67
2021/09/25 02:37:30;;;;;;;;;;;10.80;1.00;;;;;;5019141;28;19913;-67
2021/09/25 02:39:56;;;;;;;;;;;10.70;1.00;;;;;;5021586;28;19913;-65
2021/09/25 02:42:21;;;;;;;;;;;10.80;1.00;;;;;;5019426;28;19927;-67
2021/09/25 02:44:47;;;;;;;;;;;10.70;1.00;;;;;;5012638;28;19921;-66
2021/09/25 02:47:12;;;;;;;;;;;10.70;1.00;;;;;;5023947;28;20099;-67
2021/09/25 02:49:38;;;;;;;;;;;10.70;1.00;;;;;;5018420;28;19917;-67
2021/09/25 02:52:03;;;;;;;;;;;10.70;1.00;;;;;;5018799;28;19918;-66
2021/09/25 02:54:29;;;;;;;;;;;10.60;1.00;;;;;;5027643;28;19920;-66
2021/09/25 02:56:54;;;;;;;;;;;10.60;1.00;;;;;;5022237;28;20408;-67
2021/09/25 02:59:20;;;;;;;;;;;10.60;1.00;;;;;;5012644;28;20070;-67
2021/09/25 03:01:45;;;;;;;;;;;10.60;1.00;;;;;;5011543;28;19917;-64
2021/09/25 03:04:11;;;;;;;;;;;10.60;1.00;;;;;;5026570;28;19984;-65
2021/09/25 03:06:37;;;;;;;;;;;10.60;1.00;;;;;;5014596;28;19967;-66
2021/09/25 03:09:02;;;;;;;;;;;10.60;1.00;;;;;;5026167;28;20391;-67
2021/09/25 03:11:28;;;;;;;;;;;10.70;1.00;;;;;;5012337;28;20019;-66
2021/09/25 03:13:53;;;;;;;;;;;10.60;1.00;;;;;;5017532;28;20034;-67
2021/09/25 03:16:19;;;;;;;;;;;10.60;1.00;;;;;;5016793;28;20361;-66
2021/09/25 03:18:44;;;;;;;;;;;10.50;1.00;;;;;;5017809;28;19913;-66
2021/09/25 03:21:10;;;;;;;;;;;10.50;1.00;;;;;;5017845;28;19913;-67
2021/09/25 03:23:35;;;;;;;;;;;10.40;1.00;;;;;;5011598;28;20549;-67
2021/09/25 03:26:01;;;;;;;;;;;10.40;1.00;;;;;;5024277;28;20012;-68
2021/09/25 03:28:26;;;;;;;;;;;10.40;1.00;;;;;;5021121;28;19917;-65
2021/09/25 03:30:51;;;;;;;;;;;10.30;1.00;;;;;;5020067;28;19917;-66
2021/09/25 03:33:17;;;;;;;;;;;10.30;1.00;;;;;;5020462;28;20748;-67
2021/09/25 03:35:46;;;;;;;;;;;10.20;1.00;;;;;;5014404;28;19913;-66
2021/09/25 03:38:19;;;;;;;;;;;10.20;1.00;;;;;;5017002;28;19917;-67
2021/09/25 03:40:45;;;;;;;;;;;10.10;1.00;;;;;;5022694;28;19920;-66
2021/09/25 03:43:10;;;;;;;;;;;10.10;1.00;;;;;;5018824;28;20482;-67
2021/09/25 03:45:36;;;;;;;;;;;10.10;1.00;;;;;;5021266;28;20312;-66
2021/09/25 03:48:01;;;;;;;;;;;10.10;1.00;;;;;;5020079;28;19943;-66
2021/09/25 03:50:27;;;;;;;;;;;10.10;1.00;;;;;;5017660;28;19982;-67
2021/09/25 03:52:52;;;;;;;;;;;10.10;1.00;;;;;;5013976;28;19963;-66
2021/09/25 03:55:18;;;;;;;;;;;10.10;1.00;;;;;;5014992;28;19917;-66
2021/09/25 03:57:43;;;;;;;;;;;10.10;1.00;;;;;;5023306;28;19932;-67
2021/09/25 04:00:09;;;;;;;;;;;10.10;1.00;;;;;;5010834;28;20294;-66
2021/09/25 04:02:35;;;;;;;;;;;10.10;1.00;;;;;;5018835;28;20012;-67
2021/09/25 04:05:00;;;;;;;;;;;10.10;1.00;;;;;;5023494;28;20641;-68
2021/09/25 04:07:26;;;;;;;;;;;10.10;1.00;;;;;;5011626;28;19949;-67
2021/09/25 04:09:51;;;;;;;;;;;10.10;1.00;;;;;;5012099;28;19917;-66
2021/09/25 04:12:17;;;;;;;;;;;10.10;1.00;;;;;;5013807;28;19917;-68
2021/09/25 04:14:42;;;;;;;;;;;10.10;1.00;;;;;;5017806;28;19917;-68
2021/09/25 04:17:08;;;;;;;;;;;10.00;1.00;;;;;;5011383;28;20258;-67
2021/09/25 04:19:33;;;;;;;;;;;10.00;1.00;;;;;;5018224;28;19975;-65
2021/09/25 04:21:59;;;;;;;;;;;10.00;1.00;;;;;;5016629;28;19929;-66
2021/09/25 04:24:24;;;;;;;;;;;9.90;1.00;;;;;;5028216;28;19979;-66
2021/09/25 04:26:50;;;;;;;;;;;9.80;1.00;;;;;;5011476;28;19913;-67
2021/09/25 04:29:15;;;;;;;;;;;9.80;1.00;;;;;;5017688;28;19955;-67
2021/09/25 04:31:41;;;;;;;;;;;9.90;1.00;;;;;;5024363;28;19921;-63
2021/09/25 04:34:06;;;;;;;;;;;9.80;1.00;;;;;;5015616;28;19917;-67
2021/09/25 04:36:32;;;;;;;;;;;9.80;1.00;;;;;;5024700;28;20381;-64
2021/09/25 04:38:58;;;;;;;;;;;9.80;1.00;;;;;;5015168;28;20285;-67
2021/09/25 04:41:23;;;;;;;;;;;9.80;1.00;;;;;;5023791;28;19913;-67
2021/09/25 04:43:49;;;;;;;;;;;9.80;1.00;;;;;;5012057;28;20351;-67
2021/09/25 04:46:15;;;;;;;;;;;9.80;1.00;;;;;;5015973;28;19928;-67
2021/09/25 04:48:40;;;;;;;;;;;9.90;1.00;;;;;;5023336;28;19917;-66
2021/09/25 04:51:06;;;;;;;;;;;9.90;1.00;;;;;;5015392;28;19914;-67
2021/09/25 04:53:31;;;;;;;;;;;9.80;1.00;;;;;;5020202;28;19919;-67
2021/09/25 04:55:57;;;;;;;;;;;9.70;1.00;;;;;;5018481;28;20219;-67
2021/09/25 04:58:28;;;;;;;;;;;9.70;1.00;;;;;;5021485;28;20322;-67
2021/09/25 05:00:56;;;;;;;;;;;9.70;1.00;;;;;;5019236;28;19917;-67
2021/09/25 05:03:22;;;;;;;;;;;9.60;1.00;;;;;;5075641;22;19928;-63
2021/09/25 05:05:47;;;;;;;;;;;9.60;1.00;;;;;;5088094;28;19944;-62
2021/09/25 05:08:13;;;;;;;;;;;9.60;1.00;;;;;;5087738;28;19947;-63
2021/09/25 05:10:38;;;;;;;;;;;9.60;1.00;;;;;;5088122;28;19960;-63
2021/09/25 05:13:04;;;;;;;;;;;9.60;1.00;;;;;;5077302;28;19917;-64
2021/09/25 05:15:29;;;;;;;;;;;9.70;1.00;;;;;;5074214;28;19931;-62
2021/09/25 05:17:55;;;;;;;;;;;9.70;1.00;;;;;;5080171;28;20026;-62
2021/09/25 05:20:20;;;;;;;;;;;9.60;1.00;;;;;;5071639;28;19913;-60
2021/09/25 05:22:46;;;;;;;;;;;9.60;1.00;;;;;;5075776;28;19951;-62
2021/09/25 05:25:11;;;;;;;;;;;9.60;1.00;;;;;;5080840;28;20043;-62
2021/09/25 05:27:37;;;;;;;;;;;9.70;1.00;;;;;;5076325;28;19955;-63
2021/09/25 05:30:04;;;;;;;;;;;9.80;1.00;;;;;;5076544;28;20398;-62
2021/09/25 05:32:29;;;;;;;;;;;10.20;1.00;;;;;;5064197;28;19917;-61
2021/09/25 05:34:55;;;;;;;;;;;10.80;1.00;;;;;;5076045;28;20384;-63
2021/09/25 05:37:21;;;;;;;;;;;11.40;1.00;;;;;;5079594;28;19912;-62
2021/09/25 05:39:46;;;;;;;;;;;12.10;1.00;;;;;;5084567;28;20312;-62
2021/09/25 05:42:12;;;;;;;;;;;12.70;1.00;;;;;;5077165;28;19998;-62
2021/09/25 05:44:38;;;;;;;;;;;13.40;1.00;;;;;;5089705;28;20637;-61
2021/09/25 05:47:03;;;;;;;;;;;14.10;14.50;;;;;;5077004;28;20006;-62
2021/09/25 05:49:29;;;;;;;;;;;14.80;99.90;;;;;;5080017;28;19912;-63
2021/09/25 05:51:54;;;;;;;;;;;15.60;1.00;;;;;;5082347;28;20010;-61
2021/09/25 05:54:20;;;;;;;;;;;16.20;1.00;;;;;;5080487;28;19912;-62
2021/09/25 05:56:45;;;;;;;;;;;16.80;1.00;;;;;;5077172;28;19917;-62
2021/09/25 05:59:11;;;;;;;;;;;17.60;1.00;;;;;;5087831;28;20388;-61
2021/09/25 06:01:36;;;;;;;;;;;18.20;99.90;;;;;;5074070;28;19932;-61
2021/09/25 06:04:02;;;;;;;;;;;18.80;99.90;;;;;;5075347;28;19916;-62
2021/09/25 06:06:28;;;;;;;;;;;19.20;99.90;;;;;;5079322;28;19966;-62
2021/09/25 06:08:53;;;;;;;;;;;19.60;99.90;;;;;;5079782;28;19916;-64
2021/09/25 06:11:19;;;;;;;;;;;20.10;99.90;;;;;;5084093;28;20309;-61
2021/09/25 06:13:46;;;;;;;;;;;20.60;99.90;;;;;;5086342;28;19923;-64
2021/09/25 06:16:12;;;;;;;;;;;21.20;99.90;;;;;;5071067;28;20349;-65
2021/09/25 06:18:37;;;;;;;;;;;21.70;99.90;;;;;;5084666;28;20102;-63
2021/09/25 06:21:03;;;;;;;;;;;22.30;99.90;;;;;;5086258;28;19913;-60
2021/09/25 06:23:28;;;;;;;;;;;22.80;99.90;;;;;;5072920;28;19924;-64
2021/09/25 06:25:54;;;;;;;;;;;23.10;99.90;;;;;;5083359;28;19912;-62
2021/09/25 06:28:19;;;;;;;;;;;23.60;99.90;;;;;;5082756;28;19916;-63
2021/09/25 06:30:45;;;;;;;;;;;24.30;99.90;;;;;;5079750;28;19916;-63
2021/09/25 06:33:11;;;;;;;;;;;24.70;99.90;;;;;;5080279;28;19928;-64
2021/09/25 06:35:36;;;;;;;;;;;25.30;99.90;;;;;;5083147;28;19997;-63
2021/09/25 06:38:02;;;;;;;;;;;26.00;99.90;;;;;;5087155;28;19934;-63
2021/09/25 06:40:27;;;;;;;;;;;26.50;99.90;;;;;;5078280;28;19920;-61
2021/09/25 06:42:53;;;;;;;;;;;27.10;99.90;;;;;;5079600;28;20667;-64
2021/09/25 06:45:18;;;;;;;;;;;27.70;99.90;;;;;;5073258;28;19931;-64
2021/09/25 06:47:44;;;;;;;;;;;28.60;99.90;;;;;;5084023;28;19913;-64
2021/09/25 06:50:10;;;;;;;;;;;29.20;99.90;;;;;;5078013;28;20428;-63
2021/09/25 06:52:35;;;;;;;;;;;30.00;99.90;;;;;;5085413;28;20234;-61
2021/09/25 06:55:03;;;;;;;;;;;30.70;99.90;;;;;;5077536;28;19912;-62
2021/09/25 06:57:30;;;;;;;;;;;31.10;99.90;;;;;;5069545;28;19935;-62
2021/09/25 06:59:55;;;;;;;;;;;31.60;99.90;;;;;;5072231;28;20043;-61
2021/09/25 07:02:21;;;;;;;;;;;32.10;99.90;;;;;;5069284;28;20002;-64
2021/09/25 07:04:46;;;;;;;;;;;32.40;99.90;;;;;;5067300;28;19912;-62
2021/09/25 07:07:12;;;;;;;;;;;33.10;99.90;;;;;;5084029;28;20034;-60
2021/09/25 07:09:41;;;;;;;;;;;33.90;99.90;;;;;;5076153;28;19920;-61
2021/09/25 07:12:07;;;;;;;;;;;34.80;99.90;;;;;;5069015;28;20474;-62
2021/09/25 07:14:32;;;;;;;;;;;35.70;95.80;;;;;;5078519;28;19928;-62
2021/09/25 07:16:58;;;;;;;;;;;36.00;91.30;;;;;;5066808;28;19916;-60
2021/09/25 07:19:23;;;;;;;;;;;36.70;83.90;;;;;;5078235;28;19940;-61
2021/09/25 07:21:49;;;;;;;;;;;37.50;74.70;;;;;;5086767;28;19965;-62
2021/09/25 07:24:14;;;;;;;;;;;38.10;66.80;;;;;;5087184;28;20311;-63
2021/09/25 07:26:41;;;;;;;;;;;38.00;56.50;;;;;;5086731;28;19909;-62
2021/09/25 07:29:06;;;;;;;;;;;38.60;51.00;;;;;;5078975;28;19975;-63
2021/09/25 07:31:32;;;;;;;;;;;38.90;44.50;;;;;;5066622;28;19948;-61
2021/09/25 07:33:57;;;;;;;;;;;39.40;38.50;;;;;;5066443;28;19916;-63
2021/09/25 07:36:24;;;;;;;;;;;39.50;32.30;;;;;;5074715;28;19917;-63
2021/09/25 07:38:50;;;;;;;;;;;40.00;27.60;;;;;;5081685;28;19912;-64
2021/09/25 07:41:15;;;;;;;;;;;40.20;22.30;;;;;;5068609;28;19969;-63
2021/09/25 07:43:41;;;;;;;;;;;39.60;16.60;;;;;;5076221;28;19930;-57
2021/09/25 07:46:06;;;;;;;;;;;39.10;12.10;;;;;;5083735;28;19919;-64
2021/09/25 07:48:32;;;;;;;;;;;39.90;9.80;;;;;;5085739;28;20018;-62
2021/09/25 07:50:57;;;;;;;;;;;41.00;7.30;;;;;;5079181;28;19939;-63
2021/09/25 07:53:23;;;;;;;;;;;41.50;3.90;;;;;;5084688;28;20399;-59
2021/09/25 07:55:48;;;;;;;;;;;42.10;1.60;;;;;;5086090;28;20424;-65
2021/09/25 07:58:14;;;;;;;;;;;42.90;1.00;;;;;;5086490;28;19923;-63
2021/09/25 08:00:39;;;;;;;;;;;43.10;1.00;;;;;;5085751;28;20066;-59
2021/09/25 08:03:05;;;;;;;;;;;42.90;1.00;;;;;;5085710;28;19963;-66
2021/09/25 08:05:30;;;;;;;;;;;43.60;1.00;;;;;;5086766;28;20046;-60
2021/09/25 08:07:56;;;;;;;;;;;44.40;1.00;;;;;;5086834;28;19981;-61
2021/09/25 08:10:21;;;;;;;;;;;44.40;1.00;;;;;;5086327;28;19923;-60
2021/09/25 08:12:47;;;;;;;;;;;44.80;1.00;;;;;;5082208;28;20261;-61
2021/09/25 08:15:13;;;;;;;;;;;45.00;1.00;;;;;;5086140;28;19923;-61
2021/09/25 08:17:39;;;;;;;;;;;45.30;1.00;;;;;;5086358;28;19994;-63
2021/09/25 08:20:06;;;;;;;;;;;45.20;1.00;;;;;;5086616;28;20652;-62
2021/09/25 08:22:32;;;;;;;;;;;44.90;1.00;;;;;;5085286;28;19908;-62
2021/09/25 08:24:57;;;;;;;;;;;44.90;1.00;;;;;;5086767;28;19954;-63
2021/09/25 08:27:23;;;;;;;;;;;45.10;1.00;;;;;;5084429;28;20314;-63
2021/09/25 08:29:48;;;;;;;;;;;46.20;1.00;;;;;;5086428;28;20423;-63
2021/09/25 08:32:14;;;;;;;;;;;46.30;1.00;;;;;;5086765;28;19977;-64
2021/09/25 08:34:39;;;;;;;;;;;47.00;1.00;;;;;;5083281;28;20007;-63
2021/09/25 08:37:06;;;;;;;;;;;46.70;1.00;;;;;;5082546;28;20389;-61
2021/09/25 08:39:32;;;;;;;;;;;46.30;1.00;;;;;;5083260;28;19913;-67
2021/09/25 08:41:59;;;;;;;;;;;47.50;1.00;;;;;;5083960;28;19912;-63
2021/09/25 08:44:25;;;;;;;;;;;44.50;1.00;;;;;;5083873;28;19919;-64
2021/09/25 08:46:52;;;;;;;;;;;45.50;1.00;;;;;;5072439;28;19909;-60
2021/09/25 08:49:17;;;;;;;;;;;47.40;1.00;;;;;;5079367;28;19919;-64
2021/09/25 08:51:43;;;;;;;;;;;48.80;1.00;;;;;;5070199;28;19916;-63
2021/09/25 08:54:08;;;;;;;;;;;49.40;1.00;;;;;;5066144;28;20016;-63
2021/09/25 08:56:34;;;;;;;;;;;47.30;1.00;;;;;;5081011;28;19915;-63
2021/09/25 08:58:59;;;;;;;;;;;47.60;1.00;;;;;;5088817;28;20317;-63
2021/09/25 09:01:28;;;;;;;;;;;48.10;1.00;;;;;;5086931;28;19924;-64
2021/09/25 09:03:53;;;;;;;;;;;49.10;1.00;;;;;;5086210;28;20572;-66
2021/09/25 09:06:23;;;;;;;;;;;49.80;1.00;;;;;;5089483;28;19908;-66
2021/09/25 09:08:50;;;;;;;;;;;50.10;1.00;;;;;;5089065;28;20317;-67
2021/09/25 09:11:17;;;;;;;;;;;51.20;1.00;;;;;;5087976;28;19915;-65
2021/09/25 09:13:43;;;;;;;;;;;51.20;1.00;;;;;;5089254;28;19920;-67
2021/09/25 09:16:10;;;;;;;;;;;51.20;1.00;;;;;;5079068;28;20369;-67
2021/09/25 09:18:39;;;;;;;;;;;51.90;1.00;;;;;;5074235;28;20024;-67
2021/09/25 09:21:07;;;;;;;;;;;52.20;1.00;;;;;;5092755;28;20376;-66
2021/09/25 09:23:33;;;;;;;;;;;52.30;1.00;;;;;;5090108;28;20356;-62
2021/09/25 09:25:59;;;;;;;;;;;51.90;1.00;;;;;;5091479;28;19964;-64
2021/09/25 09:28:26;;;;;;;;;;;51.90;1.00;;;;;;5085396;28;20351;-64
2021/09/25 09:30:53;;;;;;;;;;;51.00;1.00;;;;;;5082261;28;20014;-64
2021/09/25 09:33:34;;;;;;;;;;;51.10;1.00;;;;;;5086368;28;19923;-63
2021/09/25 09:36:13;;;;;;;;;;;50.40;1.00;;;;;;5086324;28;19916;-61
2021/09/25 09:38:40;;;;;;;;;;;50.10;1.00;;;;;;5080913;28;19916;-63
2021/09/25 09:41:05;;;;;;;;;;;49.70;1.00;;;;;;5080799;28;19913;-63
2021/09/25 09:43:31;;;;;;;;;;;49.00;1.00;;;;;;5083775;28;20361;-63
2021/09/25 09:45:57;;;;;;;;;;;49.00;1.00;;;;;;5086607;28;19974;-62
2021/09/25 09:48:23;;;;;;;;;;;49.10;1.00;;;;;;5089233;28;19916;-67
2021/09/25 09:50:50;;;;;;;;;;;49.40;1.00;;;;;;5079142;28;19912;-62
2021/09/25 09:53:16;;;;;;;;;;;49.00;1.00;;;;;;5081158;28;20327;-63
2021/09/25 09:55:42;;;;;;;;;;;48.30;1.00;;;;;;5079474;28;19920;-61
2021/09/25 09:58:07;;;;;;;;;;;48.20;1.00;;;;;;5078376;28;19912;-62
2021/09/25 10:00:37;;;;;;;;;;;47.70;1.00;;;;;;5080600;28;19912;-64
2021/09/25 10:03:04;;;;;;;;;;;47.10;1.00;;;;;;5078460;28;20012;-63
2021/09/25 10:05:29;;;;;;;;;;;46.40;1.00;;;;;;5070815;28;19970;-62
2021/09/25 10:07:55;;;;;;;;;;;46.10;1.00;;;;;;5069738;28;19921;-63
2021/09/25 10:10:23;;;;;;;;;;;45.80;1.00;;;;;;5069651;28;20001;-62
2021/09/25 10:12:49;;;;;;;;;;;45.30;1.00;;;;;;5068860;28;19970;-63
2021/09/25 10:15:15;;;;;;;;;;;45.30;1.00;;;;;;5069858;28;19912;-63
2021/09/25 10:17:42;;;;;;;;;;;45.40;1.00;;;;;;5070445;28;19931;-63
2021/09/25 10:20:08;;;;;;;;;;;44.40;1.00;;;;;;5070700;28;19908;-63
2021/09/25 10:22:34;;;;;;;;;;;43.80;1.00;;;;;;5069855;28;20487;-63
2021/09/25 10:25:01;;;;;;;;;;;43.30;1.00;;;;;;5083271;28;20330;-63
2021/09/25 10:27:27;;;;;;;;;;;41.10;1.00;;;;;;5090581;28;19908;-63
2021/09/25 10:29:53;;;;;;;;;;;41.50;1.00;;;;;;5076788;28;20335;-63
2021/09/25 10:32:18;;;;;;;;;;;41.80;1.00;;;;;;5069335;28;19938;-64
2021/09/25 10:35:03;;;;;;;;;;;40.80;1.00;;;;;;5071152;28;19985;-62
2021/09/25 10:37:35;;;;;;;;;;;39.90;1.00;;;;;;5071017;28;19915;-62
2021/09/25 10:40:00;;;;;;;;;;;39.40;1.00;;;;;;5070584;28;19916;-62
2021/09/25 10:42:41;;;;;;;;;;;38.60;1.00;;;;;;5069343;28;19912;-64
2021/09/25 10:45:21;;;;;;;;;;;38.70;1.00;;;;;;5070682;28;19909;-64
2021/09/25 10:48:02;;;;;;;;;;;38.40;1.00;;;;;;5071024;28;19908;-62
2021/09/25 10:50:29;;;;;;;;;;;38.00;1.00;;;;;;5070981;28;19913;-62
2021/09/25 10:53:14;;;;;;;;;;;37.40;1.00;;;;;;5070050;28;19999;-63
2021/09/25 10:55:40;;;;;;;;;;;35.70;1.00;;;;;;5070171;28;20379;-63
2021/09/25 10:58:11;;;;;;;;;;;36.00;1.00;;;;;;5070113;28;20025;-63
2021/09/25 11:00:47;;;;;;;;;;;35.90;1.00;;;;;;5069783;28;19920;-63
2021/09/25 11:03:31;;;;;;;;;;;36.20;1.00;;;;;;5070113;28;19943;-62
2021/09/25 11:06:01;;;;;;;;;;;36.70;1.00;;;;;;5070054;28;19916;-61
2021/09/25 11:08:30;;;;;;;;;;;37.30;1.00;;;;;;5069589;28;19999;-61
2021/09/25 11:11:06;;;;;;;;;;;37.70;1.00;;;;;;5069222;28;19909;-61
2021/09/25 11:13:51;;;;;;;;;;;37.70;1.00;;;;;;5068714;28;19965;-61
2021/09/25 11:16:16;;;;;;;;;;;37.10;1.00;;;;;;5069279;28;19912;-61
2021/09/25 11:18:51;;;;;;;;;;;36.60;1.00;;;;;;5069597;28;19915;-62
2021/09/25 11:21:16;;;;;;;;;;;36.00;1.00;;;;;;5069875;28;20439;-61
2021/09/25 11:23:45;;;;;;;;;;;35.80;1.00;;;;;;5069375;28;19909;-63
2021/09/25 11:26:13;;;;;;;;;;;35.50;1.00;;;;;;5069319;28;19912;-63
2021/09/25 11:28:43;;;;;;;;;;;35.50;1.00;;;;;;5074040;28;20339;-62
2021/09/25 11:31:09;;;;;;;;;;;35.60;1.00;;;;;;5089753;28;19923;-63
2021/09/25 11:33:38;;;;;;;;;;;35.90;1.00;;;;;;5089108;28;19931;-61
2021/09/25 11:36:07;;;;;;;;;;;36.20;1.00;;;;;;5089999;28;20439;-61
2021/09/25 11:38:32;;;;;;;;;;;35.70;1.00;;;;;;5087894;28;19908;-60
2021/09/25 11:40:58;;;;;;;;;;;35.50;1.00;;;;;;5089145;28;19908;-64
2021/09/25 11:43:23;;;;;;;;;;;35.10;1.00;;;;;;5089352;28;20257;-63
2021/09/25 11:45:51;;;;;;;;;;;34.60;1.00;;;;;;5088570;28;19924;-64
2021/09/25 11:48:21;;;;;;;;;;;34.60;1.00;;;;;;5085998;28;19908;-63
2021/09/25 11:50:49;;;;;;;;;;;34.80;1.00;;;;;;5089274;28;19914;-62
2021/09/25 11:53:15;;;;;;;;;;;35.00;1.00;;;;;;5088734;28;19919;-62
2021/09/25 11:55:42;;;;;;;;;;;35.20;1.00;;;;;;5089266;28;19999;-62
2021/09/25 11:58:08;;;;;;;;;;;35.30;1.00;;;;;;5089076;28;19908;-62
2021/09/25 12:00:39;;;;;;;;;;;35.20;1.00;;;;;;5088501;28;19915;-62
2021/09/25 12:03:08;;;;;;;;;;;35.20;1.00;;;;;;5088902;28;20435;-62
2021/09/25 12:05:37;;;;;;;;;;;35.20;1.00;;;;;;5089539;28;19919;-63
2021/09/25 12:08:04;;;;;;;;;;;34.80;1.00;;;;;;5089557;28;19919;-63
2021/09/25 12:10:49;;;;;;;;;;;34.10;1.00;;;;;;5089072;28;19909;-62
2021/09/25 12:13:19;;;;;;;;;;;33.60;1.00;;;;;;5088811;28;20002;-63
2021/09/25 12:15:46;;;;;;;;;;;33.00;1.00;;;;;;5088989;28;20003;-61
2021/09/25 12:18:14;;;;;;;;;;;32.70;1.00;;;;;;5089801;28;20394;-63
2021/09/25 12:20:59;;;;;;;;;;;32.00;1.00;;;;;;5089071;28;20012;-63
2021/09/25 12:23:41;;;;;;;;;;;30.90;3.20;;;;;;5088329;28;20287;-62
2021/09/25 12:26:07;;;;;;;;;;;30.50;1.00;;;;;;5088314;28;19916;-63
2021/09/25 12:28:36;;;;;;;;;;;30.50;1.00;;;;;;5088783;28;19931;-62
2021/09/25 12:31:04;;;;;;;;;;;30.80;1.00;;;;;;5089081;28;19919;-63
2021/09/25 12:33:30;;;;;;;;;;;31.30;1.40;;;;;;5088583;28;19912;-63
2021/09/25 12:36:00;;;;;;;;;;;31.70;2.60;;;;;;5089079;28;20345;-63
2021/09/25 12:38:30;;;;;;;;;;;32.20;3.30;;;;;;5089686;28;19915;-63
2021/09/25 12:40:59;;;;;;;;;;;32.50;3.90;;;;;;5088288;28;19922;-63
2021/09/25 12:43:25;;;;;;;;;;;32.60;4.80;;;;;;5088544;28;19912;-64
2021/09/25 12:46:06;;;;;;;;;;;32.50;4.20;;;;;;5088226;28;19969;-64
2021/09/25 12:48:32;;;;;;;;;;;32.60;4.80;;;;;;5093870;28;20353;-64
2021/09/25 12:50:57;;;;;;;;;;;32.60;5.00;;;;;;5093120;28;19916;-64
2021/09/25 12:53:23;;;;;;;;;;;32.40;5.70;;;;;;5092842;28;19912;-64
2021/09/25 12:55:48;;;;;;;;;;;31.90;6.60;;;;;;5092523;28;20035;-62
2021/09/25 12:58:16;;;;;;;;;;;31.20;6.80;;;;;;5092916;28;19955;-63
2021/09/25 13:00:43;;;;;;;;;;;30.90;8.50;;;;;;5091928;28;19916;-64
2021/09/25 13:03:09;;;;;;;;;;;30.50;9.20;;;;;;5092260;28;19966;-65
2021/09/25 13:05:34;;;;;;;;;;;30.50;10.90;;;;;;5092776;28;19916;-63
2021/09/25 13:08:12;;;;;;;;;;;30.50;12.10;;;;;;5093148;28;20333;-63
2021/09/25 13:10:46;;;;;;;;;;;30.60;11.90;;;;;;5092561;28;19916;-64
2021/09/25 13:13:18;;;;;;;;;;;30.60;12.10;;;;;;5091768;28;20006;-63
2021/09/25 13:15:44;;;;;;;;;;;30.70;12.60;;;;;;5092245;28;19912;-63
2021/09/25 13:18:10;;;;;;;;;;;30.00;12.20;;;;;;5092877;28;19943;-63
2021/09/25 13:20:35;;;;;;;;;;;29.60;13.00;;;;;;5093044;28;19951;-64
2021/09/25 13:23:02;;;;;;;;;;;29.00;15.10;;;;;;5091807;28;20242;-63
2021/09/25 13:25:28;;;;;;;;;;;28.00;16.50;;;;;;5090794;28;20255;-64
2021/09/25 13:27:57;;;;;;;;;;;28.30;18.50;;;;;;5093255;28;19998;-63
2021/09/25 13:30:23;;;;;;;;;;;28.50;20.10;;;;;;5073675;28;19958;-63
2021/09/25 13:32:49;;;;;;;;;;;28.60;22.00;;;;;;5071416;28;19913;-63
2021/09/25 13:35:16;;;;;;;;;;;28.00;21.60;;;;;;5071455;28;19909;-63
2021/09/25 13:37:42;;;;;;;;;;;27.90;23.00;;;;;;5072330;28;19943;-63
2021/09/25 13:40:08;;;;;;;;;;;27.80;24.10;;;;;;5071525;28;20018;-64
2021/09/25 13:42:34;;;;;;;;;;;27.80;25.40;;;;;;5070592;28;19909;-63
2021/09/25 13:45:00;;;;;;;;;;;27.90;27.00;;;;;;5070989;28;19970;-63
2021/09/25 13:47:26;;;;;;;;;;;27.70;28.10;;;;;;5071275;28;19923;-64
2021/09/25 13:49:51;;;;;;;;;;;27.30;29.20;;;;;;5071687;28;19994;-64
2021/09/25 13:52:17;;;;;;;;;;;27.20;30.60;;;;;;5070611;28;19947;-65
2021/09/25 13:54:42;;;;;;;;;;;27.20;33.20;;;;;;5071211;28;20322;-64
2021/09/25 13:57:08;;;;;;;;;;;27.10;34.10;;;;;;5069900;28;19921;-64
2021/09/25 13:59:34;;;;;;;;;;;27.10;35.50;;;;;;5070818;28;19932;-64
2021/09/25 14:02:00;;;;;;;;;;;27.10;36.80;;;;;;5070042;28;20054;-63
2021/09/25 14:04:26;;;;;;;;;;;27.10;38.30;;;;;;5070678;28;20342;-64
2021/09/25 14:06:51;;;;;;;;;;;26.90;38.40;;;;;;5071199;28;19921;-64
2021/09/25 14:09:17;;;;;;;;;;;26.80;39.40;;;;;;5070928;28;19991;-64
2021/09/25 14:11:42;;;;;;;;;;;26.80;40.60;;;;;;5070197;28;19953;-64
2021/09/25 14:14:08;;;;;;;;;;;26.90;41.50;;;;;;5070110;28;19992;-65
2021/09/25 14:16:33;;;;;;;;;;;26.90;43.30;;;;;;5070451;28;20427;-64
2021/09/25 14:19:02;;;;;;;;;;;27.00;43.80;;;;;;5069248;28;19909;-64
2021/09/25 14:21:34;;;;;;;;;;;27.00;44.40;;;;;;5070925;28;20447;-63
2021/09/25 14:23:59;;;;;;;;;;;27.00;45.60;;;;;;5072760;28;20075;-64
2021/09/25 14:26:25;;;;;;;;;;;26.90;45.20;;;;;;5090827;28;20019;-63